Main page
METAR-TAF:

METAR-TAF

Airports :

Erfurt, Germany

Erfurt–Weimar Airport

latitude: 50-59N, longitude: 010-58E, elevation: 315 m

Current weather observation

The report was made 26 minutes ago, at 20:20 UTC
Wind 7 kt from the East
Temperature 19°C
Humidity 78%
Pressure 1007 hPa
Visibility 10 km or more
no clouds below 1500 m and no cumulonimbus

METAR: EDDE 272020Z 09007KT CAVOK 19/15 Q1007

Time: 22:46 (20:46 UTC)

Forecast

The report was made 3 hours and 46 minutes ago, at 17:00 UTC
Forecast valid from 27 at 18 UTC to 28 at 18 UTC
Wind 5 kt from the East
Visibility 10 km or more
Scattered clouds at a height of 4000 ft
Temporary
from 28 at 07 UTC to 28 at 09 UTC
Broken clouds at a height of 3000 ft, Cumulonimbus.
rain showers
Temporary
from 28 at 12 UTC to 28 at 18 UTC
Wind 15 kt from the Southwest with gusts up to 35 kt
Broken clouds at a height of 3000 ft, Cumulonimbus.
thunderstorm, rain

TAF: EDDE 271700Z 2718/2818 09005KT 9999 SCT040 TEMPO 2807/2809 SHRA BKN030CB TEMPO 2812/2818 22015G35KT TSRA BKN030CB

Weather observations and forecasts of more than 4000 airports (METAR and TAF reports).

The available stations are represented by yellow and red dots on the map.

Hover mouse over dot to see the name of the station.

Then click to see weather observations and forecasts.

To change the map : click on the green buttons with a black cross to zoom in, on the green button with a dash to zoom out, or on the green arrows for adjacent maps.


METAR-TAF: